This is the latest recevied weather packets stored in our database for station/object 9M4GEK-3. If no packets are shown the sender has not sent any weather packets the latest 10 day(s).
| Time | Temp. | Humidity | Pressure | Rain* | Wind** | Luminosity | Snow |
|---|---|---|---|---|---|---|---|
| 1777776612 | 41.11° C | 42% | 1009.3 hPa | - | - | - | - |
| 1777775712 | 41.11° C | 41% | 1009.6 hPa | - | - | - | - |
| 1777774936 | 40.56° C | 45% | 1009.5 hPa | - | - | - | - |
| 1777771211 | 37.78° C | 53% | 1008.9 hPa | - | - | - | - |
| 1777768510 | 33.89° C | 63% | 1008.3 hPa | - | - | - | - |
| 1777767698 | 31.67° C | 67% | 1008.1 hPa | - | - | - | - |
| 1777761308 | 26.11° C | 79% | 1006.9 hPa | - | - | - | - |
| 1777760441 | 26.11° C | 80% | 1006.7 hPa | - | - | - | - |
| 1777760408 | 26.11° C | 80% | 1006.7 hPa | - | - | - | - |
| 1777759507 | 26.11° C | 80% | 1006.6 hPa | - | - | - | - |
| 1777757707 | 26.11° C | 79% | 1006.5 hPa | - | - | - | - |
| 1777756988 | 26.11° C | 79% | 1006.6 hPa | - | - | - | - |
| 1777755908 | 26.11° C | 80% | 1006.6 hPa | - | - | - | - |
| 1777755008 | 26.11° C | 80% | 1006.7 hPa | - | - | - | - |
| 1777754176 | 26.11° C | 79% | 1006.9 hPa | - | - | - | - |
| 1777754107 | 26.11° C | 79% | 1006.9 hPa | - | - | - | - |
| 1777753270 | 26.11° C | 79% | 1006.8 hPa | - | - | - | - |
| 1777753207 | 26.11° C | 79% | 1006.8 hPa | - | - | - | - |
| 1777752369 | 26.11° C | 79% | 1007 hPa | - | - | - | - |
| 1777750506 | 26.67° C | 77% | 1007.1 hPa | - | - | - | - |
| 1777749606 | 26.67° C | 77% | 1007.2 hPa | - | - | - | - |
| 1777748779 | 26.67° C | 76% | 1007.3 hPa | - | - | - | - |
| 1777747805 | 26.67° C | 76% | 1007.2 hPa | - | - | - | - |
| 1777746940 | 26.67° C | 77% | 1007.4 hPa | - | - | - | - |
| 1777746905 | 26.67° C | 77% | 1007.4 hPa | - | - | - | - |
* Rain since midnight (hover to see other rain measurements)
** Current wind speed in m/s (hover to see current wind gust speed)